sensor_id;sensor_type;location;lat;lon;timestamp;P1;durP1;ratioP1;P2;durP2;ratioP2
3447;SDS011;1738;49.500;17.736;2023-08-12T00:00:39;10.73;;;6.50;;
3447;SDS011;1738;49.500;17.736;2023-08-12T00:03:04;6.53;;;4.50;;
3447;SDS011;1738;49.500;17.736;2023-08-12T00:05:30;13.43;;;5.17;;
3447;SDS011;1738;49.500;17.736;2023-08-12T00:07:56;6.87;;;5.22;;
3447;SDS011;1738;49.500;17.736;2023-08-12T00:10:22;5.80;;;4.93;;
3447;SDS011;1738;49.500;17.736;2023-08-12T00:12:48;8.33;;;5.23;;
3447;SDS011;1738;49.500;17.736;2023-08-12T00:15:14;8.23;;;4.80;;
3447;SDS011;1738;49.500;17.736;2023-08-12T00:17:40;8.70;;;5.30;;
3447;SDS011;1738;49.500;17.736;2023-08-12T00:20:06;7.77;;;5.27;;
3447;SDS011;1738;49.500;17.736;2023-08-12T00:22:32;6.47;;;5.43;;
3447;SDS011;1738;49.500;17.736;2023-08-12T00:24:58;8.83;;;5.33;;
3447;SDS011;1738;49.500;17.736;2023-08-12T00:27:23;11.00;;;5.70;;
3447;SDS011;1738;49.500;17.736;2023-08-12T00:29:49;7.10;;;6.27;;
3447;SDS011;1738;49.500;17.736;2023-08-12T00:32:15;7.75;;;4.62;;
3447;SDS011;1738;49.500;17.736;2023-08-12T00:34:41;15.50;;;5.10;;
3447;SDS011;1738;49.500;17.736;2023-08-12T00:37:07;5.63;;;4.67;;
3447;SDS011;1738;49.500;17.736;2023-08-12T00:39:33;8.57;;;4.80;;
3447;SDS011;1738;49.500;17.736;2023-08-12T00:41:58;6.40;;;4.20;;
3447;SDS011;1738;49.500;17.736;2023-08-12T00:44:24;7.07;;;5.10;;
3447;SDS011;1738;49.500;17.736;2023-08-12T00:46:50;7.07;;;5.20;;
3447;SDS011;1738;49.500;17.736;2023-08-12T00:49:16;7.57;;;5.03;;
3447;SDS011;1738;49.500;17.736;2023-08-12T00:51:42;7.30;;;5.10;;
3447;SDS011;1738;49.500;17.736;2023-08-12T00:54:08;6.80;;;5.20;;
3447;SDS011;1738;49.500;17.736;2023-08-12T00:56:33;7.82;;;5.65;;
3447;SDS011;1738;49.500;17.736;2023-08-12T00:59:00;5.03;;;4.07;;
3447;SDS011;1738;49.500;17.736;2023-08-12T01:01:25;12.27;;;5.40;;
3447;SDS011;1738;49.500;17.736;2023-08-12T01:03:51;7.00;;;4.60;;
3447;SDS011;1738;49.500;17.736;2023-08-12T01:06:17;7.97;;;4.80;;
3447;SDS011;1738;49.500;17.736;2023-08-12T01:08:43;5.12;;;4.60;;
3447;SDS011;1738;49.500;17.736;2023-08-12T01:11:12;5.97;;;4.27;;
3447;SDS011;1738;49.500;17.736;2023-08-12T01:14:45;6.18;;;4.85;;
3447;SDS011;1738;49.500;17.736;2023-08-12T01:16:19;7.80;;;4.80;;
3447;SDS011;1738;49.500;17.736;2023-08-12T01:18:45;8.17;;;5.00;;
3447;SDS011;1738;49.500;17.736;2023-08-12T01:21:11;7.87;;;4.03;;
3447;SDS011;1738;49.500;17.736;2023-08-12T01:23:36;6.67;;;5.17;;
3447;SDS011;1738;49.500;17.736;2023-08-12T01:26:02;6.20;;;4.60;;
3447;SDS011;1738;49.500;17.736;2023-08-12T01:28:28;5.97;;;5.03;;
3447;SDS011;1738;49.500;17.736;2023-08-12T01:30:56;12.77;;;5.17;;
3447;SDS011;1738;49.500;17.736;2023-08-12T01:33:23;6.70;;;4.20;;
3447;SDS011;1738;49.500;17.736;2023-08-12T01:35:50;7.70;;;5.20;;
3447;SDS011;1738;49.500;17.736;2023-08-12T01:38:13;7.33;;;5.70;;
3447;SDS011;1738;49.500;17.736;2023-08-12T01:40:39;6.43;;;4.30;;
3447;SDS011;1738;49.500;17.736;2023-08-12T01:43:05;9.30;;;5.23;;
3447;SDS011;1738;49.500;17.736;2023-08-12T01:45:31;5.57;;;4.40;;
3447;SDS011;1738;49.500;17.736;2023-08-12T01:47:57;6.07;;;4.40;;
3447;SDS011;1738;49.500;17.736;2023-08-12T01:50:23;6.95;;;5.45;;
3447;SDS011;1738;49.500;17.736;2023-08-12T01:52:49;6.25;;;5.07;;
3447;SDS011;1738;49.500;17.736;2023-08-12T01:55:14;6.57;;;4.80;;
3447;SDS011;1738;49.500;17.736;2023-08-12T01:57:40;5.23;;;4.53;;
3447;SDS011;1738;49.500;17.736;2023-08-12T02:00:06;6.90;;;4.13;;
3447;SDS011;1738;49.500;17.736;2023-08-12T02:02:32;6.53;;;4.97;;
3447;SDS011;1738;49.500;17.736;2023-08-12T02:04:58;8.60;;;4.77;;
3447;SDS011;1738;49.500;17.736;2023-08-12T02:07:24;7.80;;;4.87;;
3447;SDS011;1738;49.500;17.736;2023-08-12T02:09:50;7.50;;;4.83;;
3447;SDS011;1738;49.500;17.736;2023-08-12T02:12:16;5.40;;;4.80;;
3447;SDS011;1738;49.500;17.736;2023-08-12T02:14:42;4.53;;;3.83;;
3447;SDS011;1738;49.500;17.736;2023-08-12T02:17:07;9.40;;;5.70;;
3447;SDS011;1738;49.500;17.736;2023-08-12T02:19:33;7.30;;;4.63;;
3447;SDS011;1738;49.500;17.736;2023-08-12T02:21:59;5.33;;;4.83;;
3447;SDS011;1738;49.500;17.736;2023-08-12T02:24:25;7.50;;;5.50;;
3447;SDS011;1738;49.500;17.736;2023-08-12T02:26:51;8.70;;;4.93;;
3447;SDS011;1738;49.500;17.736;2023-08-12T02:29:17;6.18;;;4.65;;
3447;SDS011;1738;49.500;17.736;2023-08-12T02:31:42;6.53;;;5.17;;
3447;SDS011;1738;49.500;17.736;2023-08-12T02:34:08;6.77;;;5.13;;
3447;SDS011;1738;49.500;17.736;2023-08-12T02:36:34;6.60;;;4.57;;
3447;SDS011;1738;49.500;17.736;2023-08-12T02:39:00;6.17;;;5.57;;
3447;SDS011;1738;49.500;17.736;2023-08-12T02:41:26;5.93;;;4.70;;
3447;SDS011;1738;49.500;17.736;2023-08-12T02:43:52;6.93;;;4.33;;
3447;SDS011;1738;49.500;17.736;2023-08-12T02:46:17;11.63;;;4.70;;
3447;SDS011;1738;49.500;17.736;2023-08-12T02:48:43;6.93;;;5.47;;
3447;SDS011;1738;49.500;17.736;2023-08-12T02:51:09;6.40;;;5.63;;
3447;SDS011;1738;49.500;17.736;2023-08-12T02:53:35;8.23;;;5.40;;
3447;SDS011;1738;49.500;17.736;2023-08-12T02:56:01;6.40;;;5.30;;
3447;SDS011;1738;49.500;17.736;2023-08-12T02:58:27;6.43;;;5.60;;
3447;SDS011;1738;49.500;17.736;2023-08-12T03:00:54;8.40;;;5.43;;
3447;SDS011;1738;49.500;17.736;2023-08-12T03:03:18;8.17;;;5.30;;
3447;SDS011;1738;49.500;17.736;2023-08-12T03:05:47;8.93;;;5.80;;
3447;SDS011;1738;49.500;17.736;2023-08-12T03:08:12;7.70;;;6.57;;
3447;SDS011;1738;49.500;17.736;2023-08-12T03:10:38;7.53;;;6.18;;
3447;SDS011;1738;49.500;17.736;2023-08-12T03:13:04;10.63;;;5.10;;
3447;SDS011;1738;49.500;17.736;2023-08-12T03:15:29;9.03;;;5.90;;
3447;SDS011;1738;49.500;17.736;2023-08-12T03:17:56;10.83;;;7.27;;
3447;SDS011;1738;49.500;17.736;2023-08-12T03:20:21;8.80;;;6.40;;
3447;SDS011;1738;49.500;17.736;2023-08-12T03:22:47;8.93;;;7.93;;
3447;SDS011;1738;49.500;17.736;2023-08-12T03:25:13;11.30;;;7.17;;
3447;SDS011;1738;49.500;17.736;2023-08-12T03:27:39;12.60;;;8.03;;
3447;SDS011;1738;49.500;17.736;2023-08-12T03:30:05;8.40;;;7.45;;
3447;SDS011;1738;49.500;17.736;2023-08-12T03:32:31;10.87;;;7.93;;
3447;SDS011;1738;49.500;17.736;2023-08-12T03:34:57;9.73;;;8.13;;
3447;SDS011;1738;49.500;17.736;2023-08-12T03:37:24;11.57;;;8.10;;
3447;SDS011;1738;49.500;17.736;2023-08-12T03:39:49;10.03;;;7.90;;
3447;SDS011;1738;49.500;17.736;2023-08-12T03:42:15;8.37;;;7.57;;
3447;SDS011;1738;49.500;17.736;2023-08-12T03:44:41;10.87;;;8.27;;
3447;SDS011;1738;49.500;17.736;2023-08-12T03:47:07;7.83;;;6.97;;
3447;SDS011;1738;49.500;17.736;2023-08-12T03:49:33;10.73;;;6.67;;
3447;SDS011;1738;49.500;17.736;2023-08-12T03:51:59;9.97;;;7.53;;
3447;SDS011;1738;49.500;17.736;2023-08-12T03:54:24;9.60;;;6.97;;
3447;SDS011;1738;49.500;17.736;2023-08-12T03:56:50;10.60;;;6.77;;
3447;SDS011;1738;49.500;17.736;2023-08-12T03:59:16;8.57;;;7.43;;
3447;SDS011;1738;49.500;17.736;2023-08-12T04:01:42;7.90;;;6.60;;
3447;SDS011;1738;49.500;17.736;2023-08-12T04:04:08;7.87;;;6.30;;
3447;SDS011;1738;49.500;17.736;2023-08-12T04:06:34;6.80;;;5.97;;
3447;SDS011;1738;49.500;17.736;2023-08-12T04:08:59;14.50;;;5.80;;
3447;SDS011;1738;49.500;17.736;2023-08-12T04:11:25;12.60;;;6.43;;
3447;SDS011;1738;49.500;17.736;2023-08-12T04:13:51;10.27;;;6.80;;
3447;SDS011;1738;49.500;17.736;2023-08-12T04:16:18;7.68;;;6.12;;
3447;SDS011;1738;49.500;17.736;2023-08-12T04:18:43;9.10;;;6.17;;
3447;SDS011;1738;49.500;17.736;2023-08-12T04:21:09;8.23;;;6.87;;
3447;SDS011;1738;49.500;17.736;2023-08-12T04:23:35;10.75;;;6.43;;
3447;SDS011;1738;49.500;17.736;2023-08-12T04:26:01;9.70;;;6.67;;
3447;SDS011;1738;49.500;17.736;2023-08-12T04:28:27;10.30;;;7.07;;
3447;SDS011;1738;49.500;17.736;2023-08-12T04:30:53;8.13;;;6.33;;
3447;SDS011;1738;49.500;17.736;2023-08-12T04:33:18;8.87;;;6.23;;
3447;SDS011;1738;49.500;17.736;2023-08-12T04:35:45;13.60;;;7.83;;
3447;SDS011;1738;49.500;17.736;2023-08-12T04:38:11;13.00;;;8.57;;
3447;SDS011;1738;49.500;17.736;2023-08-12T04:40:38;12.30;;;7.50;;
3447;SDS011;1738;49.500;17.736;2023-08-12T04:43:03;8.93;;;6.93;;
3447;SDS011;1738;49.500;17.736;2023-08-12T04:45:29;8.93;;;7.80;;
3447;SDS011;1738;49.500;17.736;2023-08-12T04:47:55;12.13;;;7.83;;
3447;SDS011;1738;49.500;17.736;2023-08-12T04:50:21;9.40;;;8.00;;
3447;SDS011;1738;49.500;17.736;2023-08-12T04:52:47;9.60;;;8.27;;
3447;SDS011;1738;49.500;17.736;2023-08-12T04:55:13;9.10;;;8.07;;
3447;SDS011;1738;49.500;17.736;2023-08-12T04:57:39;9.68;;;7.50;;
3447;SDS011;1738;49.500;17.736;2023-08-12T05:00:05;10.17;;;8.27;;
3447;SDS011;1738;49.500;17.736;2023-08-12T05:02:33;11.33;;;8.30;;
3447;SDS011;1738;49.500;17.736;2023-08-12T05:04:59;9.67;;;7.67;;
3447;SDS011;1738;49.500;17.736;2023-08-12T05:07:25;8.73;;;7.83;;
3447;SDS011;1738;49.500;17.736;2023-08-12T05:09:51;8.10;;;7.30;;
3447;SDS011;1738;49.500;17.736;2023-08-12T05:12:16;7.70;;;6.87;;
3447;SDS011;1738;49.500;17.736;2023-08-12T05:14:42;12.63;;;7.73;;
3447;SDS011;1738;49.500;17.736;2023-08-12T05:17:08;10.20;;;8.07;;
3447;SDS011;1738;49.500;17.736;2023-08-12T05:19:34;9.00;;;7.10;;
3447;SDS011;1738;49.500;17.736;2023-08-12T05:22:00;9.10;;;7.00;;
3447;SDS011;1738;49.500;17.736;2023-08-12T05:24:26;11.10;;;8.57;;
3447;SDS011;1738;49.500;17.736;2023-08-12T05:26:51;13.03;;;10.57;;
3447;SDS011;1738;49.500;17.736;2023-08-12T05:29:17;13.73;;;10.57;;
3447;SDS011;1738;49.500;17.736;2023-08-12T05:31:43;13.67;;;11.87;;
3447;SDS011;1738;49.500;17.736;2023-08-12T05:34:09;9.63;;;8.47;;
3447;SDS011;1738;49.500;17.736;2023-08-12T05:36:35;10.60;;;8.93;;
3447;SDS011;1738;49.500;17.736;2023-08-12T05:39:01;10.00;;;8.30;;
3447;SDS011;1738;49.500;17.736;2023-08-12T05:41:26;8.67;;;7.37;;
3447;SDS011;1738;49.500;17.736;2023-08-12T05:43:52;12.00;;;8.50;;
3447;SDS011;1738;49.500;17.736;2023-08-12T05:46:18;10.33;;;7.27;;
3447;SDS011;1738;49.500;17.736;2023-08-12T05:48:44;7.60;;;6.80;;
3447;SDS011;1738;49.500;17.736;2023-08-12T05:51:10;10.80;;;7.50;;
3447;SDS011;1738;49.500;17.736;2023-08-12T05:53:36;7.10;;;6.33;;
3447;SDS011;1738;49.500;17.736;2023-08-12T05:56:02;6.90;;;6.20;;
3447;SDS011;1738;49.500;17.736;2023-08-12T05:58:27;10.35;;;6.70;;
3447;SDS011;1738;49.500;17.736;2023-08-12T06:00:53;12.80;;;6.60;;
3447;SDS011;1738;49.500;17.736;2023-08-12T06:03:19;7.20;;;6.40;;
3447;SDS011;1738;49.500;17.736;2023-08-12T06:05:45;7.73;;;6.17;;
3447;SDS011;1738;49.500;17.736;2023-08-12T06:08:11;7.70;;;6.53;;
3447;SDS011;1738;49.500;17.736;2023-08-12T06:10:37;11.77;;;7.63;;
3447;SDS011;1738;49.500;17.736;2023-08-12T06:13:02;7.53;;;6.47;;
3447;SDS011;1738;49.500;17.736;2023-08-12T06:15:28;17.47;;;5.60;;
3447;SDS011;1738;49.500;17.736;2023-08-12T06:17:54;7.70;;;5.83;;
3447;SDS011;1738;49.500;17.736;2023-08-12T06:20:20;7.77;;;5.50;;
3447;SDS011;1738;49.500;17.736;2023-08-12T06:22:46;21.97;;;6.30;;
3447;SDS011;1738;49.500;17.736;2023-08-12T06:25:12;10.00;;;6.10;;
3447;SDS011;1738;49.500;17.736;2023-08-12T06:27:37;6.73;;;5.80;;
3447;SDS011;1738;49.500;17.736;2023-08-12T06:30:04;9.15;;;5.85;;
3447;SDS011;1738;49.500;17.736;2023-08-12T06:32:30;7.20;;;5.70;;
3447;SDS011;1738;49.500;17.736;2023-08-12T06:34:55;7.20;;;5.87;;
3447;SDS011;1738;49.500;17.736;2023-08-12T06:37:21;7.47;;;5.30;;
3447;SDS011;1738;49.500;17.736;2023-08-12T06:39:47;7.60;;;5.50;;
3447;SDS011;1738;49.500;17.736;2023-08-12T06:42:13;5.50;;;5.00;;
3447;SDS011;1738;49.500;17.736;2023-08-12T06:44:39;7.60;;;5.03;;
3447;SDS011;1738;49.500;17.736;2023-08-12T06:47:05;6.18;;;5.35;;
3447;SDS011;1738;49.500;17.736;2023-08-12T06:49:30;6.93;;;5.43;;
3447;SDS011;1738;49.500;17.736;2023-08-12T06:51:56;12.77;;;4.97;;
3447;SDS011;1738;49.500;17.736;2023-08-12T06:54:22;8.95;;;5.28;;
3447;SDS011;1738;49.500;17.736;2023-08-12T06:56:48;6.53;;;5.27;;
3447;SDS011;1738;49.500;17.736;2023-08-12T06:59:14;7.50;;;5.27;;
3447;SDS011;1738;49.500;17.736;2023-08-12T07:01:40;6.17;;;4.80;;
3447;SDS011;1738;49.500;17.736;2023-08-12T07:04:05;11.80;;;5.20;;
3447;SDS011;1738;49.500;17.736;2023-08-12T07:06:31;6.43;;;5.20;;
3447;SDS011;1738;49.500;17.736;2023-08-12T07:08:57;8.07;;;5.00;;
3447;SDS011;1738;49.500;17.736;2023-08-12T07:11:23;7.85;;;5.28;;
3447;SDS011;1738;49.500;17.736;2023-08-12T07:13:49;7.10;;;4.70;;
3447;SDS011;1738;49.500;17.736;2023-08-12T07:16:15;5.90;;;4.27;;
3447;SDS011;1738;49.500;17.736;2023-08-12T07:18:40;5.53;;;4.13;;
3447;SDS011;1738;49.500;17.736;2023-08-12T07:21:06;6.60;;;4.00;;
3447;SDS011;1738;49.500;17.736;2023-08-12T07:23:32;7.43;;;4.13;;
3447;SDS011;1738;49.500;17.736;2023-08-12T07:25:58;7.50;;;4.70;;
3447;SDS011;1738;49.500;17.736;2023-08-12T07:28:24;8.80;;;5.20;;
3447;SDS011;1738;49.500;17.736;2023-08-12T07:30:50;5.20;;;4.10;;
3447;SDS011;1738;49.500;17.736;2023-08-12T07:33:16;5.50;;;4.00;;
3447;SDS011;1738;49.500;17.736;2023-08-12T07:35:41;6.87;;;4.80;;
3447;SDS011;1738;49.500;17.736;2023-08-12T07:38:07;6.40;;;4.80;;
3447;SDS011;1738;49.500;17.736;2023-08-12T07:40:33;5.33;;;4.27;;
3447;SDS011;1738;49.500;17.736;2023-08-12T07:42:59;7.23;;;3.60;;
3447;SDS011;1738;49.500;17.736;2023-08-12T07:45:25;5.33;;;4.40;;
3447;SDS011;1738;49.500;17.736;2023-08-12T07:47:51;6.43;;;4.40;;
3447;SDS011;1738;49.500;17.736;2023-08-12T07:50:16;6.37;;;3.87;;
3447;SDS011;1738;49.500;17.736;2023-08-12T07:52:42;4.30;;;3.40;;
3447;SDS011;1738;49.500;17.736;2023-08-12T07:55:08;4.70;;;3.50;;
3447;SDS011;1738;49.500;17.736;2023-08-12T07:57:34;5.73;;;3.50;;
3447;SDS011;1738;49.500;17.736;2023-08-12T08:00:00;6.00;;;4.27;;
3447;SDS011;1738;49.500;17.736;2023-08-12T08:02:26;4.50;;;3.67;;
3447;SDS011;1738;49.500;17.736;2023-08-12T08:04:51;5.27;;;3.73;;
3447;SDS011;1738;49.500;17.736;2023-08-12T08:07:17;8.03;;;3.80;;
3447;SDS011;1738;49.500;17.736;2023-08-12T08:09:43;5.50;;;3.47;;
3447;SDS011;1738;49.500;17.736;2023-08-12T08:12:09;9.83;;;3.60;;
3447;SDS011;1738;49.500;17.736;2023-08-12T08:14:35;6.10;;;3.53;;
3447;SDS011;1738;49.500;17.736;2023-08-12T08:17:01;5.72;;;2.85;;
3447;SDS011;1738;49.500;17.736;2023-08-12T08:19:26;4.57;;;3.33;;
3447;SDS011;1738;49.500;17.736;2023-08-12T08:21:52;4.57;;;3.37;;
3447;SDS011;1738;49.500;17.736;2023-08-12T08:24:18;4.10;;;3.20;;
3447;SDS011;1738;49.500;17.736;2023-08-12T08:26:44;6.10;;;3.30;;
3447;SDS011;1738;49.500;17.736;2023-08-12T08:29:12;4.30;;;2.97;;
3447;SDS011;1738;49.500;17.736;2023-08-12T08:31:38;4.65;;;2.78;;
3447;SDS011;1738;49.500;17.736;2023-08-12T08:34:04;8.10;;;3.20;;
3447;SDS011;1738;49.500;17.736;2023-08-12T08:36:30;4.20;;;3.07;;
3447;SDS011;1738;49.500;17.736;2023-08-12T08:38:56;3.97;;;2.90;;
3447;SDS011;1738;49.500;17.736;2023-08-12T08:41:22;3.93;;;2.70;;
3447;SDS011;1738;49.500;17.736;2023-08-12T08:43:47;4.10;;;2.83;;
3447;SDS011;1738;49.500;17.736;2023-08-12T08:46:15;4.43;;;2.97;;
3447;SDS011;1738;49.500;17.736;2023-08-12T08:48:41;5.83;;;3.03;;
3447;SDS011;1738;49.500;17.736;2023-08-12T08:51:06;5.50;;;3.07;;
3447;SDS011;1738;49.500;17.736;2023-08-12T08:53:34;5.33;;;3.10;;
3447;SDS011;1738;49.500;17.736;2023-08-12T08:55:58;4.70;;;3.40;;
3447;SDS011;1738;49.500;17.736;2023-08-12T08:58:24;5.47;;;3.07;;
3447;SDS011;1738;49.500;17.736;2023-08-12T09:00:50;5.17;;;2.93;;
3447;SDS011;1738;49.500;17.736;2023-08-12T09:03:16;5.07;;;3.13;;
3447;SDS011;1738;49.500;17.736;2023-08-12T09:05:41;4.27;;;2.77;;
3447;SDS011;1738;49.500;17.736;2023-08-12T09:08:07;4.30;;;2.73;;
3447;SDS011;1738;49.500;17.736;2023-08-12T09:10:33;3.87;;;2.70;;
3447;SDS011;1738;49.500;17.736;2023-08-12T09:12:59;3.63;;;2.80;;
3447;SDS011;1738;49.500;17.736;2023-08-12T09:15:25;4.83;;;3.07;;
3447;SDS011;1738;49.500;17.736;2023-08-12T09:17:51;3.77;;;2.60;;
3447;SDS011;1738;49.500;17.736;2023-08-12T09:20:17;4.60;;;2.80;;
3447;SDS011;1738;49.500;17.736;2023-08-12T09:22:42;4.90;;;2.80;;
3447;SDS011;1738;49.500;17.736;2023-08-12T09:25:09;5.53;;;2.70;;
3447;SDS011;1738;49.500;17.736;2023-08-12T09:27:35;3.80;;;2.47;;
3447;SDS011;1738;49.500;17.736;2023-08-12T09:30:02;5.25;;;2.65;;
3447;SDS011;1738;49.500;17.736;2023-08-12T09:32:26;5.53;;;2.60;;
3447;SDS011;1738;49.500;17.736;2023-08-12T09:34:53;4.37;;;3.00;;
3447;SDS011;1738;49.500;17.736;2023-08-12T09:37:18;4.57;;;2.57;;
3447;SDS011;1738;49.500;17.736;2023-08-12T09:39:44;4.80;;;2.60;;
3447;SDS011;1738;49.500;17.736;2023-08-12T09:42:11;4.27;;;2.20;;
3447;SDS011;1738;49.500;17.736;2023-08-12T09:44:37;3.60;;;2.20;;
3447;SDS011;1738;49.500;17.736;2023-08-12T09:47:02;3.60;;;2.53;;
3447;SDS011;1738;49.500;17.736;2023-08-12T09:49:28;3.40;;;2.53;;
3447;SDS011;1738;49.500;17.736;2023-08-12T09:51:54;3.90;;;2.97;;
3447;SDS011;1738;49.500;17.736;2023-08-12T09:54:20;4.27;;;2.90;;
3447;SDS011;1738;49.500;17.736;2023-08-12T09:56:48;8.53;;;2.80;;
3447;SDS011;1738;49.500;17.736;2023-08-12T09:59:14;5.70;;;2.53;;
3447;SDS011;1738;49.500;17.736;2023-08-12T10:01:39;4.30;;;2.60;;
3447;SDS011;1738;49.500;17.736;2023-08-12T10:04:05;3.63;;;2.73;;
3447;SDS011;1738;49.500;17.736;2023-08-12T10:06:31;4.00;;;3.30;;
3447;SDS011;1738;49.500;17.736;2023-08-12T10:08:57;3.57;;;2.70;;
3447;SDS011;1738;49.500;17.736;2023-08-12T10:11:22;6.87;;;2.43;;
3447;SDS011;1738;49.500;17.736;2023-08-12T10:13:48;3.97;;;2.67;;
3447;SDS011;1738;49.500;17.736;2023-08-12T10:16:14;5.17;;;2.80;;
3447;SDS011;1738;49.500;17.736;2023-08-12T10:18:40;3.70;;;2.80;;
3447;SDS011;1738;49.500;17.736;2023-08-12T10:21:07;4.00;;;2.67;;
3447;SDS011;1738;49.500;17.736;2023-08-12T10:23:32;3.70;;;2.17;;
3447;SDS011;1738;49.500;17.736;2023-08-12T10:25:57;3.90;;;2.40;;
3447;SDS011;1738;49.500;17.736;2023-08-12T10:28:23;3.93;;;2.77;;
3447;SDS011;1738;49.500;17.736;2023-08-12T10:30:49;6.50;;;2.47;;
3447;SDS011;1738;49.500;17.736;2023-08-12T10:33:15;3.73;;;2.87;;
3447;SDS011;1738;49.500;17.736;2023-08-12T10:35:43;5.40;;;3.10;;
3447;SDS011;1738;49.500;17.736;2023-08-12T10:38:08;5.30;;;2.90;;
3447;SDS011;1738;49.500;17.736;2023-08-12T10:40:34;3.37;;;2.60;;
3447;SDS011;1738;49.500;17.736;2023-08-12T10:43:00;5.70;;;2.90;;
3447;SDS011;1738;49.500;17.736;2023-08-12T10:45:25;4.93;;;2.70;;
3447;SDS011;1738;49.500;17.736;2023-08-12T10:47:53;3.50;;;2.70;;
3447;SDS011;1738;49.500;17.736;2023-08-12T10:50:19;3.50;;;2.40;;
3447;SDS011;1738;49.500;17.736;2023-08-12T10:52:45;3.50;;;2.30;;
3447;SDS011;1738;49.500;17.736;2023-08-12T10:55:16;3.80;;;2.63;;
3447;SDS011;1738;49.500;17.736;2023-08-12T10:57:41;6.75;;;2.62;;
3447;SDS011;1738;49.500;17.736;2023-08-12T11:00:10;4.00;;;2.67;;
3447;SDS011;1738;49.500;17.736;2023-08-12T11:02:34;4.27;;;2.60;;
3447;SDS011;1738;49.500;17.736;2023-08-12T11:05:03;3.63;;;2.90;;
3447;SDS011;1738;49.500;17.736;2023-08-12T11:07:29;4.60;;;2.40;;
3447;SDS011;1738;49.500;17.736;2023-08-12T11:09:55;4.50;;;2.30;;
3447;SDS011;1738;49.500;17.736;2023-08-12T11:14:53;3.07;;;1.93;;
3447;SDS011;1738;49.500;17.736;2023-08-12T11:17:19;3.13;;;2.30;;
3447;SDS011;1738;49.500;17.736;2023-08-12T11:19:45;4.00;;;2.80;;
3447;SDS011;1738;49.500;17.736;2023-08-12T11:22:11;3.03;;;2.33;;
3447;SDS011;1738;49.500;17.736;2023-08-12T11:24:37;4.13;;;2.13;;
3447;SDS011;1738;49.500;17.736;2023-08-12T11:27:02;4.50;;;2.70;;
3447;SDS011;1738;49.500;17.736;2023-08-12T11:29:28;11.90;;;3.13;;
3447;SDS011;1738;49.500;17.736;2023-08-12T11:31:54;4.70;;;2.20;;
3447;SDS011;1738;49.500;17.736;2023-08-12T11:34:20;4.00;;;2.80;;
3447;SDS011;1738;49.500;17.736;2023-08-12T11:36:46;5.83;;;2.50;;
3447;SDS011;1738;49.500;17.736;2023-08-12T11:39:12;3.37;;;2.25;;
3447;SDS011;1738;49.500;17.736;2023-08-12T11:41:38;6.43;;;3.00;;
3447;SDS011;1738;49.500;17.736;2023-08-12T11:44:03;4.00;;;2.13;;
3447;SDS011;1738;49.500;17.736;2023-08-12T11:46:32;3.80;;;2.30;;
3447;SDS011;1738;49.500;17.736;2023-08-12T11:48:55;3.90;;;2.40;;
3447;SDS011;1738;49.500;17.736;2023-08-12T11:51:21;9.77;;;3.00;;
3447;SDS011;1738;49.500;17.736;2023-08-12T11:53:47;5.53;;;2.60;;
3447;SDS011;1738;49.500;17.736;2023-08-12T11:56:13;4.20;;;2.60;;
3447;SDS011;1738;49.500;17.736;2023-08-12T11:58:38;6.43;;;2.77;;
3447;SDS011;1738;49.500;17.736;2023-08-12T12:01:04;9.70;;;2.67;;
3447;SDS011;1738;49.500;17.736;2023-08-12T12:03:30;7.03;;;2.63;;
3447;SDS011;1738;49.500;17.736;2023-08-12T12:05:56;4.70;;;2.67;;
3447;SDS011;1738;49.500;17.736;2023-08-12T12:08:22;4.30;;;2.40;;
3447;SDS011;1738;49.500;17.736;2023-08-12T12:10:48;5.87;;;2.73;;
3447;SDS011;1738;49.500;17.736;2023-08-12T12:13:13;4.60;;;2.93;;
3447;SDS011;1738;49.500;17.736;2023-08-12T12:15:41;4.40;;;3.10;;
3447;SDS011;1738;49.500;17.736;2023-08-12T12:18:12;5.33;;;3.40;;
3447;SDS011;1738;49.500;17.736;2023-08-12T12:23:09;7.13;;;2.77;;
3447;SDS011;1738;49.500;17.736;2023-08-12T12:25:35;3.67;;;2.40;;
3447;SDS011;1738;49.500;17.736;2023-08-12T12:28:01;5.50;;;3.00;;
3447;SDS011;1738;49.500;17.736;2023-08-12T12:30:27;4.10;;;2.83;;
3447;SDS011;1738;49.500;17.736;2023-08-12T12:32:53;3.63;;;2.80;;
3447;SDS011;1738;49.500;17.736;2023-08-12T12:35:18;5.07;;;2.87;;
3447;SDS011;1738;49.500;17.736;2023-08-12T12:37:44;5.60;;;3.47;;
3447;SDS011;1738;49.500;17.736;2023-08-12T12:40:10;2.97;;;2.20;;
3447;SDS011;1738;49.500;17.736;2023-08-12T12:42:36;4.40;;;3.07;;
3447;SDS011;1738;49.500;17.736;2023-08-12T12:45:03;11.33;;;2.40;;
3447;SDS011;1738;49.500;17.736;2023-08-12T12:47:28;3.63;;;2.47;;
3447;SDS011;1738;49.500;17.736;2023-08-12T12:49:54;4.93;;;2.60;;
3447;SDS011;1738;49.500;17.736;2023-08-12T12:52:20;4.53;;;2.40;;
3447;SDS011;1738;49.500;17.736;2023-08-12T12:54:46;4.13;;;2.40;;
3447;SDS011;1738;49.500;17.736;2023-08-12T12:57:12;3.80;;;2.73;;
3447;SDS011;1738;49.500;17.736;2023-08-12T12:59:38;5.90;;;2.57;;
3447;SDS011;1738;49.500;17.736;2023-08-12T13:02:04;4.27;;;2.30;;
3447;SDS011;1738;49.500;17.736;2023-08-12T13:04:29;4.50;;;2.73;;
3447;SDS011;1738;49.500;17.736;2023-08-12T13:06:55;3.90;;;2.83;;
3447;SDS011;1738;49.500;17.736;2023-08-12T13:09:21;3.83;;;2.78;;
3447;SDS011;1738;49.500;17.736;2023-08-12T13:11:47;4.20;;;2.63;;
3447;SDS011;1738;49.500;17.736;2023-08-12T13:14:13;4.17;;;2.97;;
3447;SDS011;1738;49.500;17.736;2023-08-12T13:16:39;3.43;;;2.60;;
3447;SDS011;1738;49.500;17.736;2023-08-12T13:19:04;5.33;;;2.93;;
3447;SDS011;1738;49.500;17.736;2023-08-12T13:21:30;5.20;;;3.17;;
3447;SDS011;1738;49.500;17.736;2023-08-12T13:23:56;3.63;;;2.70;;
3447;SDS011;1738;49.500;17.736;2023-08-12T13:26:22;7.77;;;3.50;;
3447;SDS011;1738;49.500;17.736;2023-08-12T13:28:48;4.17;;;2.90;;
3447;SDS011;1738;49.500;17.736;2023-08-12T13:31:14;4.70;;;2.53;;
3447;SDS011;1738;49.500;17.736;2023-08-12T13:33:39;6.10;;;2.93;;
3447;SDS011;1738;49.500;17.736;2023-08-12T13:36:05;4.13;;;2.80;;
3447;SDS011;1738;49.500;17.736;2023-08-12T13:38:31;6.60;;;2.60;;
3447;SDS011;1738;49.500;17.736;2023-08-12T13:40:57;4.97;;;2.57;;
3447;SDS011;1738;49.500;17.736;2023-08-12T13:43:23;6.90;;;2.80;;
3447;SDS011;1738;49.500;17.736;2023-08-12T13:45:49;5.20;;;2.30;;
3447;SDS011;1738;49.500;17.736;2023-08-12T13:48:14;4.23;;;2.53;;
3447;SDS011;1738;49.500;17.736;2023-08-12T13:50:40;6.40;;;2.70;;
3447;SDS011;1738;49.500;17.736;2023-08-12T13:53:06;4.37;;;3.00;;
3447;SDS011;1738;49.500;17.736;2023-08-12T13:55:32;3.40;;;2.43;;
3447;SDS011;1738;49.500;17.736;2023-08-12T13:57:58;5.73;;;3.00;;
3447;SDS011;1738;49.500;17.736;2023-08-12T14:00:24;3.93;;;2.47;;
3447;SDS011;1738;49.500;17.736;2023-08-12T14:02:50;3.30;;;2.53;;
3447;SDS011;1738;49.500;17.736;2023-08-12T14:05:15;4.00;;;2.63;;
3447;SDS011;1738;49.500;17.736;2023-08-12T14:07:41;4.80;;;2.37;;
3447;SDS011;1738;49.500;17.736;2023-08-12T14:10:07;4.93;;;2.57;;
3447;SDS011;1738;49.500;17.736;2023-08-12T14:12:33;5.00;;;2.67;;
3447;SDS011;1738;49.500;17.736;2023-08-12T14:14:59;3.83;;;2.43;;
3447;SDS011;1738;49.500;17.736;2023-08-12T14:17:25;4.13;;;2.93;;
3447;SDS011;1738;49.500;17.736;2023-08-12T14:19:50;4.20;;;2.20;;
3447;SDS011;1738;49.500;17.736;2023-08-12T14:22:17;3.50;;;2.37;;
3447;SDS011;1738;49.500;17.736;2023-08-12T14:24:42;4.40;;;2.60;;
3447;SDS011;1738;49.500;17.736;2023-08-12T14:27:08;5.33;;;2.30;;
3447;SDS011;1738;49.500;17.736;2023-08-12T14:29:34;5.17;;;2.80;;
3447;SDS011;1738;49.500;17.736;2023-08-12T14:32:00;3.47;;;2.40;;
3447;SDS011;1738;49.500;17.736;2023-08-12T14:34:26;3.30;;;2.30;;
3447;SDS011;1738;49.500;17.736;2023-08-12T14:36:51;3.87;;;2.60;;
3447;SDS011;1738;49.500;17.736;2023-08-12T14:39:17;5.40;;;2.43;;
3447;SDS011;1738;49.500;17.736;2023-08-12T14:41:43;5.00;;;2.50;;
3447;SDS011;1738;49.500;17.736;2023-08-12T14:44:09;3.77;;;2.57;;
3447;SDS011;1738;49.500;17.736;2023-08-12T14:46:35;4.70;;;2.57;;
3447;SDS011;1738;49.500;17.736;2023-08-12T14:49:01;5.00;;;2.30;;
3447;SDS011;1738;49.500;17.736;2023-08-12T14:51:26;5.20;;;2.50;;
3447;SDS011;1738;49.500;17.736;2023-08-12T14:53:52;4.47;;;2.53;;
3447;SDS011;1738;49.500;17.736;2023-08-12T14:56:18;3.53;;;2.57;;